Time;durP1;ratioP1;P1;durP2;ratioP2;P2;SDS_P1;SDS_P2;PMS_P1;PMS_P2;Temp;Humidity;BMP_temperature;BMP_pressure;BME280_temperature;BME280_humidity;BME280_pressure;Samples;Min_cycle;Max_cycle;Signal;HPM_P1;HPM_P2
2023/12/19 00:01:09;;;;;;;39.40;15.53;;;;;;;;;;759004;181;897208;-64
2023/12/19 00:03:35;;;;;;;40.73;15.60;;;;;;;;;;760956;183;919658;-65
2023/12/19 00:06:01;;;;;;;44.47;16.00;;;;;;;;;;766048;183;920147;-65
2023/12/19 00:08:27;;;;;;;28.17;15.10;;;;;;;;;;759424;183;926813;-64
2023/12/19 00:10:53;;;;;;;34.57;13.47;;;;;;;;;;760206;183;919321;-58
2023/12/19 00:13:18;;;;;;;47.78;17.58;;;;;;;;;;760886;184;918975;-64
2023/12/19 00:15:44;;;;;;;41.10;15.53;;;;;;;;;;763384;181;924326;-58
2023/12/19 00:18:10;;;;;;;78.40;16.47;;;;;;;;;;760263;181;918286;-58
2023/12/19 00:20:36;;;;;;;45.47;16.07;;;;;;;;;;758668;183;1020557;-58
2023/12/19 00:23:02;;;;;;;28.63;13.37;;;;;;;;;;766976;180;919132;-58
2023/12/19 00:25:30;;;;;;;38.33;16.37;;;;;;;;;;757934;183;918925;-64
2023/12/19 00:27:54;;;;;;;59.13;16.17;;;;;;;;;;759463;183;918548;-65
2023/12/19 00:30:19;;;;;;;87.15;19.85;;;;;;;;;;763969;181;925969;-66
2023/12/19 00:32:45;;;;;;;56.67;18.37;;;;;;;;;;762730;180;820405;-64
2023/12/19 00:35:11;;;;;;;44.97;18.30;;;;;;;;;;759485;181;918021;-66
2023/12/19 00:37:37;;;;;;;63.37;16.50;;;;;;;;;;764090;183;920230;-65
2023/12/19 00:40:03;;;;;;;47.93;16.67;;;;;;;;;;759360;183;915930;-65
2023/12/19 00:42:29;;;;;;;41.17;15.00;;;;;;;;;;759705;183;919710;-64
2023/12/19 00:44:55;;;;;;;44.17;15.55;;;;;;;;;;759473;183;919444;-64
2023/12/19 00:47:21;;;;;;;45.93;16.30;;;;;;;;;;762752;184;918878;-59
2023/12/19 00:49:47;;;;;;;40.15;17.25;;;;;;;;;;759262;184;919446;-59
2023/12/19 00:52:12;;;;;;;42.87;16.00;;;;;;;;;;759599;182;814297;-58
2023/12/19 00:54:38;;;;;;;34.13;15.98;;;;;;;;;;764364;183;917780;-66
2023/12/19 00:57:04;;;;;;;39.63;15.50;;;;;;;;;;761085;183;916836;-58
2023/12/19 00:59:30;;;;;;;45.00;15.93;;;;;;;;;;759011;183;1009258;-59
2023/12/19 01:01:56;;;;;;;45.97;17.37;;;;;;;;;;765895;182;818635;-64
2023/12/19 01:04:22;;;;;;;66.20;18.07;;;;;;;;;;760017;183;911465;-64
2023/12/19 01:06:48;;;;;;;52.23;17.77;;;;;;;;;;760221;184;915927;-65
2023/12/19 01:09:14;;;;;;;62.33;17.50;;;;;;;;;;760976;180;820257;-59
2023/12/19 01:11:39;;;;;;;73.40;19.20;;;;;;;;;;764898;183;919646;-64
2023/12/19 01:14:05;;;;;;;109.33;19.90;;;;;;;;;;762895;181;816126;-64
2023/12/19 01:16:31;;;;;;;77.55;17.10;;;;;;;;;;759818;181;918790;-59
2023/12/19 01:18:57;;;;;;;85.77;22.93;;;;;;;;;;766917;183;816913;-65
2023/12/19 01:21:23;;;;;;;81.67;19.83;;;;;;;;;;761972;181;919185;-58
2023/12/19 01:23:49;;;;;;;54.33;18.47;;;;;;;;;;760779;184;919529;-65
2023/12/19 01:26:14;;;;;;;57.40;16.52;;;;;;;;;;764772;183;919491;-66
2023/12/19 01:28:40;;;;;;;62.00;20.27;;;;;;;;;;759321;182;921983;-66
2023/12/19 01:31:06;;;;;;;66.62;18.30;;;;;;;;;;758072;183;920077;-65
2023/12/19 01:33:32;;;;;;;33.83;12.27;;;;;;;;;;765862;184;876018;-59
2023/12/19 01:35:58;;;;;;;46.87;17.17;;;;;;;;;;759950;183;919044;-65
2023/12/19 01:38:24;;;;;;;64.07;15.07;;;;;;;;;;758915;181;918349;-58
2023/12/19 01:40:50;;;;;;;40.33;16.17;;;;;;;;;;762671;183;816796;-65
2023/12/19 01:43:18;;;;;;;45.90;16.10;;;;;;;;;;765892;181;917333;-65
2023/12/19 01:45:43;;;;;;;57.03;17.50;;;;;;;;;;760852;181;924484;-65
2023/12/19 01:48:09;;;;;;;37.00;13.33;;;;;;;;;;761063;183;1021166;-65
2023/12/19 01:50:35;;;;;;;33.00;13.70;;;;;;;;;;763728;183;917747;-64
2023/12/19 01:53:00;;;;;;;30.27;15.90;;;;;;;;;;759189;183;930195;-59
2023/12/19 01:55:26;;;;;;;32.67;15.97;;;;;;;;;;757382;183;919068;-59
2023/12/19 01:57:52;;;;;;;25.63;15.77;;;;;;;;;;765058;183;914034;-58
2023/12/19 02:00:18;;;;;;;24.00;14.47;;;;;;;;;;759033;183;921253;-65
2023/12/19 02:02:44;;;;;;;23.63;14.47;;;;;;;;;;759489;184;919893;-59
2023/12/19 02:05:10;;;;;;;25.63;15.23;;;;;;;;;;759364;181;919333;-65
2023/12/19 02:07:36;;;;;;;26.40;12.35;;;;;;;;;;769136;182;816076;-65
2023/12/19 02:10:01;;;;;;;22.40;14.37;;;;;;;;;;759037;183;925381;-58
2023/12/19 02:12:27;;;;;;;23.73;13.67;;;;;;;;;;757973;181;954949;-65
2023/12/19 02:14:53;;;;;;;20.20;12.97;;;;;;;;;;764143;183;919245;-60
2023/12/19 02:17:19;;;;;;;25.77;15.77;;;;;;;;;;757835;183;911993;-65
2023/12/19 02:19:45;;;;;;;24.40;14.27;;;;;;;;;;757991;183;918803;-65
2023/12/19 02:22:11;;;;;;;26.80;14.33;;;;;;;;;;766918;182;920079;-59
2023/12/19 02:24:37;;;;;;;24.05;13.13;;;;;;;;;;762675;183;920147;-65
2023/12/19 02:27:02;;;;;;;20.63;12.63;;;;;;;;;;760861;183;918798;-59
2023/12/19 02:29:28;;;;;;;19.87;13.20;;;;;;;;;;766448;183;811002;-59
2023/12/19 02:31:54;;;;;;;21.57;13.47;;;;;;;;;;760322;183;919335;-58
2023/12/19 02:34:20;;;;;;;16.47;11.60;;;;;;;;;;760176;183;867670;-59
2023/12/19 02:36:46;;;;;;;20.90;11.40;;;;;;;;;;760037;181;908233;-65
2023/12/19 02:39:12;;;;;;;20.73;13.50;;;;;;;;;;764821;183;862452;-65
2023/12/19 02:41:38;;;;;;;22.95;13.25;;;;;;;;;;759815;183;887974;-59
2023/12/19 02:44:03;;;;;;;21.53;13.60;;;;;;;;;;760714;183;918950;-65
2023/12/19 02:46:29;;;;;;;27.90;15.40;;;;;;;;;;766496;181;819177;-59
2023/12/19 02:48:55;;;;;;;22.40;14.17;;;;;;;;;;760981;183;824622;-66
2023/12/19 02:51:21;;;;;;;28.33;14.47;;;;;;;;;;760590;181;919383;-65
2023/12/19 02:53:47;;;;;;;23.30;13.83;;;;;;;;;;761070;183;919436;-66
2023/12/19 02:56:13;;;;;;;23.70;13.97;;;;;;;;;;761356;183;817605;-66
2023/12/19 02:58:38;;;;;;;23.50;13.77;;;;;;;;;;760198;183;1009274;-65
2023/12/19 03:01:06;;;;;;;21.07;12.53;;;;;;;;;;758666;183;913699;-65
2023/12/19 03:03:32;;;;;;;26.43;15.57;;;;;;;;;;759445;184;918901;-58
2023/12/19 03:05:58;;;;;;;22.23;13.70;;;;;;;;;;758652;183;918623;-59
2023/12/19 03:08:24;;;;;;;22.10;13.30;;;;;;;;;;759267;183;917538;-59
2023/12/19 03:10:49;;;;;;;24.93;14.13;;;;;;;;;;763553;183;915230;-59
2023/12/19 03:13:15;;;;;;;22.57;12.57;;;;;;;;;;760880;183;817894;-59
2023/12/19 03:15:41;;;;;;;21.70;13.90;;;;;;;;;;761502;181;912709;-67
2023/12/19 03:18:07;;;;;;;23.10;13.80;;;;;;;;;;764652;181;841614;-65
2023/12/19 03:20:33;;;;;;;27.03;14.90;;;;;;;;;;759804;182;816803;-66
2023/12/19 03:22:59;;;;;;;22.08;13.57;;;;;;;;;;759188;184;901507;-65
2023/12/19 03:25:24;;;;;;;23.60;15.23;;;;;;;;;;758096;182;919602;-65
2023/12/19 03:27:50;;;;;;;26.05;14.82;;;;;;;;;;757191;182;921836;-59
2023/12/19 03:30:16;;;;;;;27.60;14.00;;;;;;;;;;759317;183;919379;-66
2023/12/19 03:32:42;;;;;;;25.07;15.20;;;;;;;;;;760178;182;901829;-66
2023/12/19 03:35:08;;;;;;;22.27;14.10;;;;;;;;;;767775;183;920744;-59
2023/12/19 03:37:34;;;;;;;22.90;12.83;;;;;;;;;;763145;181;916697;-65
2023/12/19 03:40:00;;;;;;;22.43;13.63;;;;;;;;;;760163;183;923907;-66
2023/12/19 03:42:25;;;;;;;24.50;14.38;;;;;;;;;;764892;183;816995;-66
2023/12/19 03:44:51;;;;;;;22.30;13.93;;;;;;;;;;760683;183;915771;-65
2023/12/19 03:47:17;;;;;;;23.80;14.13;;;;;;;;;;759510;183;916726;-59
2023/12/19 03:49:43;;;;;;;23.30;12.90;;;;;;;;;;763301;181;917972;-59
2023/12/19 03:52:09;;;;;;;20.70;12.57;;;;;;;;;;758709;181;918518;-65
2023/12/19 03:54:35;;;;;;;18.10;12.67;;;;;;;;;;758453;183;919039;-58
2023/12/19 03:57:00;;;;;;;18.90;12.70;;;;;;;;;;759658;181;920658;-58
2023/12/19 03:59:26;;;;;;;20.20;12.90;;;;;;;;;;764315;184;1115593;-58
2023/12/19 04:01:52;;;;;;;19.13;11.80;;;;;;;;;;760254;183;925477;-59
2023/12/19 04:04:18;;;;;;;20.55;12.40;;;;;;;;;;759580;183;918201;-59
2023/12/19 04:06:44;;;;;;;18.70;12.10;;;;;;;;;;764685;184;918401;-60
2023/12/19 04:09:10;;;;;;;23.10;11.67;;;;;;;;;;758595;183;818247;-59
2023/12/19 04:11:36;;;;;;;18.40;11.33;;;;;;;;;;758780;180;830621;-59
2023/12/19 04:14:02;;;;;;;15.63;10.77;;;;;;;;;;762990;183;920425;-59
2023/12/19 04:16:27;;;;;;;17.87;10.20;;;;;;;;;;759153;181;917186;-59
2023/12/19 04:18:53;;;;;;;19.57;13.23;;;;;;;;;;758442;183;915892;-59
2023/12/19 04:21:19;;;;;;;16.07;11.23;;;;;;;;;;757460;182;910043;-66
2023/12/19 04:23:45;;;;;;;17.83;12.00;;;;;;;;;;768624;181;919800;-59
2023/12/19 04:26:19;;;;;;;19.93;12.03;;;;;;;;;;758028;184;924986;-61
2023/12/19 04:28:44;;;;;;;19.93;12.20;;;;;;;;;;758865;184;917053;-59
2023/12/19 04:31:10;;;;;;;18.43;13.27;;;;;;;;;;764321;181;920907;-66
2023/12/19 04:33:36;;;;;;;18.87;12.30;;;;;;;;;;757931;181;916960;-66
2023/12/19 04:36:02;;;;;;;16.13;10.63;;;;;;;;;;758015;183;920394;-59
2023/12/19 04:38:27;;;;;;;28.50;13.17;;;;;;;;;;761289;183;813941;-66
2023/12/19 04:40:53;;;;;;;20.53;13.27;;;;;;;;;;763949;183;923507;-59
2023/12/19 04:43:19;;;;;;;18.27;13.53;;;;;;;;;;759224;182;919236;-66
2023/12/19 04:45:45;;;;;;;19.45;13.15;;;;;;;;;;762841;183;917306;-65
2023/12/19 04:48:11;;;;;;;18.70;13.80;;;;;;;;;;767979;183;820967;-65
2023/12/19 04:50:37;;;;;;;23.17;15.10;;;;;;;;;;761168;181;871133;-66
2023/12/19 04:53:02;;;;;;;18.80;12.23;;;;;;;;;;760771;183;818504;-66
2023/12/19 04:55:28;;;;;;;24.03;13.47;;;;;;;;;;765412;181;915945;-59
2023/12/19 04:57:54;;;;;;;26.00;14.23;;;;;;;;;;763297;183;817993;-59
2023/12/19 05:00:20;;;;;;;17.30;13.23;;;;;;;;;;761420;183;918414;-59
2023/12/19 05:02:47;;;;;;;22.45;13.52;;;;;;;;;;764438;183;916957;-60
2023/12/19 05:05:13;;;;;;;20.30;14.37;;;;;;;;;;767809;181;914977;-59
2023/12/19 05:07:38;;;;;;;23.35;13.90;;;;;;;;;;758957;183;919892;-68
2023/12/19 05:10:04;;;;;;;23.60;14.67;;;;;;;;;;760399;181;919042;-66
2023/12/19 05:12:30;;;;;;;22.67;14.63;;;;;;;;;;763233;183;920533;-60
2023/12/19 05:14:56;;;;;;;22.60;14.87;;;;;;;;;;758714;183;918992;-66
2023/12/19 05:17:22;;;;;;;21.17;13.47;;;;;;;;;;760000;183;915314;-65
2023/12/19 05:19:48;;;;;;;23.53;15.40;;;;;;;;;;765118;183;918456;-59
2023/12/19 05:22:14;;;;;;;25.60;14.73;;;;;;;;;;760164;183;828870;-60
2023/12/19 05:24:40;;;;;;;21.40;13.30;;;;;;;;;;760405;183;917567;-66
2023/12/19 05:27:06;;;;;;;20.23;14.37;;;;;;;;;;764962;181;919810;-59
2023/12/19 05:29:32;;;;;;;24.70;15.93;;;;;;;;;;758011;182;921486;-59
2023/12/19 05:31:58;;;;;;;23.40;15.10;;;;;;;;;;758002;181;923179;-59
2023/12/19 05:34:24;;;;;;;20.43;14.90;;;;;;;;;;758088;182;919275;-65
2023/12/19 05:36:49;;;;;;;24.83;14.83;;;;;;;;;;762449;184;1018033;-59
2023/12/19 05:39:17;;;;;;;16.90;13.20;;;;;;;;;;757261;182;916295;-59
2023/12/19 05:41:41;;;;;;;15.10;8.70;;;;;;;;;;759246;184;871442;-65
2023/12/19 05:44:07;;;;;;;13.63;8.70;;;;;;;;;;768375;182;629035;-67
2023/12/19 05:46:33;;;;;;;13.73;8.30;;;;;;;;;;764989;181;632510;-66
2023/12/19 05:48:59;;;;;;;14.13;7.90;;;;;;;;;;763682;183;822235;-59
2023/12/19 05:51:24;;;;;;;12.93;8.10;;;;;;;;;;764594;183;907512;-65
2023/12/19 05:53:50;;;;;;;11.10;7.23;;;;;;;;;;760349;183;819010;-65
2023/12/19 05:56:16;;;;;;;11.13;8.20;;;;;;;;;;760074;183;1019280;-65
2023/12/19 05:58:44;;;;;;;13.17;8.03;;;;;;;;;;763115;183;839607;-59
2023/12/19 06:01:08;;;;;;;10.93;6.87;;;;;;;;;;764382;182;810767;-59
2023/12/19 06:03:34;;;;;;;14.03;8.00;;;;;;;;;;761484;183;722280;-60
2023/12/19 06:05:59;;;;;;;14.83;9.03;;;;;;;;;;759711;181;915207;-64
2023/12/19 06:08:25;;;;;;;12.53;7.60;;;;;;;;;;767795;183;715609;-59
2023/12/19 06:10:52;;;;;;;13.47;7.27;;;;;;;;;;760381;183;920008;-60
2023/12/19 06:13:17;;;;;;;9.07;6.50;;;;;;;;;;761680;182;905611;-59
2023/12/19 06:15:43;;;;;;;11.40;7.57;;;;;;;;;;762225;183;919586;-60
2023/12/19 06:18:09;;;;;;;10.53;7.07;;;;;;;;;;757082;182;921142;-60
2023/12/19 06:20:35;;;;;;;8.80;6.53;;;;;;;;;;760027;183;918108;-67
2023/12/19 06:23:00;;;;;;;11.27;7.60;;;;;;;;;;764616;183;918529;-60
2023/12/19 06:25:26;;;;;;;12.20;6.87;;;;;;;;;;758326;183;917957;-66
2023/12/19 06:27:52;;;;;;;11.93;7.50;;;;;;;;;;758420;183;921730;-67
2023/12/19 06:30:19;;;;;;;12.90;6.70;;;;;;;;;;759242;183;922222;-66
2023/12/19 06:32:47;;;;;;;9.57;7.13;;;;;;;;;;769116;181;625047;-68
2023/12/19 06:35:10;;;;;;;12.77;7.33;;;;;;;;;;764579;181;620711;-60
2023/12/19 06:37:35;;;;;;;11.80;8.50;;;;;;;;;;759754;181;915251;-66
2023/12/19 06:40:02;;;;;;;12.50;7.80;;;;;;;;;;764824;183;913759;-60
2023/12/19 06:42:27;;;;;;;12.10;7.87;;;;;;;;;;760509;181;805998;-68
2023/12/19 06:44:53;;;;;;;15.00;8.10;;;;;;;;;;758400;183;920582;-66
2023/12/19 06:47:19;;;;;;;9.10;6.03;;;;;;;;;;764163;183;818536;-66
2023/12/19 06:49:45;;;;;;;12.33;7.87;;;;;;;;;;760369;183;914679;-61
2023/12/19 06:52:10;;;;;;;11.07;8.00;;;;;;;;;;759344;184;918975;-60
2023/12/19 06:54:38;;;;;;;19.98;7.40;;;;;;;;;;760751;183;745794;-61
2023/12/19 06:57:03;;;;;;;12.27;6.47;;;;;;;;;;767353;182;902656;-61
2023/12/19 06:59:28;;;;;;;8.63;5.53;;;;;;;;;;761569;181;631950;-61
2023/12/19 07:01:54;;;;;;;12.10;7.50;;;;;;;;;;764228;183;607790;-63
2023/12/19 07:04:20;;;;;;;10.67;6.33;;;;;;;;;;767040;183;644636;-68
2023/12/19 07:06:46;;;;;;;9.77;6.23;;;;;;;;;;758762;183;1021183;-66
2023/12/19 07:09:14;;;;;;;9.80;6.83;;;;;;;;;;763450;183;713725;-66
2023/12/19 07:11:38;;;;;;;13.83;8.30;;;;;;;;;;765429;183;919376;-61
2023/12/19 07:14:03;;;;;;;10.60;7.50;;;;;;;;;;765274;182;918102;-67
2023/12/19 07:16:29;;;;;;;19.92;12.02;;;;;;;;;;762272;183;911193;-61
2023/12/19 07:18:55;;;;;;;16.97;11.40;;;;;;;;;;765422;183;887694;-61
2023/12/19 07:21:21;;;;;;;18.57;10.30;;;;;;;;;;757858;183;951366;-68
2023/12/19 07:23:47;;;;;;;13.27;9.70;;;;;;;;;;760649;183;915855;-66
2023/12/19 07:26:19;;;;;;;13.27;8.83;;;;;;;;;;759030;183;924119;-62
2023/12/19 07:28:44;;;;;;;13.50;9.63;;;;;;;;;;760775;184;919666;-61
2023/12/19 07:31:10;;;;;;;10.23;6.67;;;;;;;;;;759561;183;912899;-66
2023/12/19 07:33:36;;;;;;;11.47;6.17;;;;;;;;;;760314;183;895226;-66
2023/12/19 07:36:02;;;;;;;9.47;5.90;;;;;;;;;;763316;182;916640;-66
2023/12/19 07:38:28;;;;;;;10.07;6.80;;;;;;;;;;761451;183;819825;-67
2023/12/19 07:40:53;;;;;;;22.87;7.60;;;;;;;;;;761558;183;824922;-66
2023/12/19 07:43:19;;;;;;;8.83;6.57;;;;;;;;;;758969;183;918509;-63
2023/12/19 07:45:45;;;;;;;10.60;6.63;;;;;;;;;;756314;183;914396;-66
2023/12/19 07:48:11;;;;;;;10.20;5.77;;;;;;;;;;758631;183;918746;-66
2023/12/19 07:50:37;;;;;;;11.00;7.63;;;;;;;;;;758286;181;1019728;-63
2023/12/19 07:53:03;;;;;;;13.43;6.20;;;;;;;;;;764210;183;815070;-67
2023/12/19 07:55:29;;;;;;;9.20;6.10;;;;;;;;;;757837;181;917771;-67
2023/12/19 07:57:54;;;;;;;8.53;6.30;;;;;;;;;;758207;181;917713;-66
2023/12/19 08:00:20;;;;;;;9.00;6.23;;;;;;;;;;764038;181;918265;-64
2023/12/19 08:02:49;;;;;;;11.63;7.40;;;;;;;;;;758935;183;939662;-68
2023/12/19 08:05:12;;;;;;;10.17;6.60;;;;;;;;;;758880;183;920595;-66
2023/12/19 08:07:38;;;;;;;12.98;7.03;;;;;;;;;;763703;183;977450;-66
2023/12/19 08:10:04;;;;;;;13.00;7.17;;;;;;;;;;760070;183;926232;-64
2023/12/19 08:12:30;;;;;;;10.93;6.53;;;;;;;;;;759224;183;921372;-66
2023/12/19 08:14:56;;;;;;;8.77;6.60;;;;;;;;;;759063;183;912412;-67
2023/12/19 08:17:22;;;;;;;11.30;7.47;;;;;;;;;;763821;183;818855;-68
2023/12/19 08:19:47;;;;;;;11.70;7.20;;;;;;;;;;761706;182;918636;-65
2023/12/19 08:22:13;;;;;;;10.80;6.90;;;;;;;;;;760760;183;867052;-67
2023/12/19 08:24:39;;;;;;;13.50;6.90;;;;;;;;;;765739;183;916988;-65
2023/12/19 08:27:05;;;;;;;11.97;7.47;;;;;;;;;;761494;182;917004;-67
2023/12/19 08:29:31;;;;;;;14.17;6.80;;;;;;;;;;761022;181;894199;-65
2023/12/19 08:31:57;;;;;;;12.00;6.70;;;;;;;;;;765654;183;817122;-65
2023/12/19 08:34:22;;;;;;;10.87;6.83;;;;;;;;;;760378;183;918880;-69
2023/12/19 08:36:48;;;;;;;12.50;5.93;;;;;;;;;;759536;181;916715;-65
2023/12/19 08:39:14;;;;;;;9.20;6.10;;;;;;;;;;760138;182;816743;-64
2023/12/19 08:41:40;;;;;;;9.40;5.40;;;;;;;;;;767806;181;915891;-65
2023/12/19 08:44:06;;;;;;;8.43;5.37;;;;;;;;;;757618;183;908276;-65
2023/12/19 08:46:32;;;;;;;8.07;5.50;;;;;;;;;;761774;183;816962;-66
2023/12/19 08:48:58;;;;;;;10.07;6.60;;;;;;;;;;765009;183;912663;-64
2023/12/19 08:51:23;;;;;;;11.20;7.37;;;;;;;;;;760873;183;919374;-71
2023/12/19 08:53:49;;;;;;;9.00;6.03;;;;;;;;;;761224;181;817659;-69
2023/12/19 08:56:15;;;;;;;10.90;7.07;;;;;;;;;;763584;183;922202;-69
2023/12/19 08:58:43;;;;;;;11.47;6.47;;;;;;;;;;757556;183;913191;-70
2023/12/19 09:01:07;;;;;;;13.75;7.12;;;;;;;;;;758007;181;917515;-64
2023/12/19 09:03:33;;;;;;;12.80;7.30;;;;;;;;;;763444;183;913098;-68
2023/12/19 09:05:58;;;;;;;10.27;7.30;;;;;;;;;;759928;181;856052;-65
2023/12/19 09:08:24;;;;;;;12.93;8.73;;;;;;;;;;759585;183;915945;-70
2023/12/19 09:10:50;;;;;;;16.53;7.93;;;;;;;;;;757862;181;903095;-69
2023/12/19 09:13:16;;;;;;;15.47;8.90;;;;;;;;;;765200;183;810089;-68
2023/12/19 09:15:42;;;;;;;14.27;9.33;;;;;;;;;;761088;183;908161;-68
2023/12/19 09:18:07;;;;;;;14.37;8.80;;;;;;;;;;756888;183;1040062;-69
2023/12/19 09:20:33;;;;;;;17.75;10.65;;;;;;;;;;762103;181;914055;-64
2023/12/19 09:23:00;;;;;;;12.60;7.43;;;;;;;;;;756776;184;914679;-64
2023/12/19 09:25:25;;;;;;;17.03;9.07;;;;;;;;;;759080;183;922691;-69
2023/12/19 09:27:51;;;;;;;18.60;10.07;;;;;;;;;;763790;183;916839;-68
2023/12/19 09:30:17;;;;;;;13.63;8.77;;;;;;;;;;759510;183;934154;-66
2023/12/19 09:32:43;;;;;;;16.40;8.90;;;;;;;;;;766614;180;630487;-64
2023/12/19 09:35:10;;;;;;;13.00;8.90;;;;;;;;;;764845;181;627051;-68
2023/12/19 09:37:34;;;;;;;18.30;10.67;;;;;;;;;;766547;183;624804;-69
2023/12/19 09:40:01;;;;;;;16.77;9.70;;;;;;;;;;763959;183;646859;-63
2023/12/19 09:42:27;;;;;;;14.00;10.37;;;;;;;;;;762998;183;632184;-64
2023/12/19 09:44:52;;;;;;;14.40;9.43;;;;;;;;;;768035;183;625144;-64
2023/12/19 09:47:18;;;;;;;20.60;10.20;;;;;;;;;;761509;181;913011;-63
2023/12/19 09:49:44;;;;;;;19.80;9.93;;;;;;;;;;758582;183;914633;-70
2023/12/19 09:52:12;;;;;;;15.60;9.60;;;;;;;;;;765672;180;812395;-63
2023/12/19 09:54:36;;;;;;;13.90;9.33;;;;;;;;;;762107;183;919047;-69
2023/12/19 09:57:02;;;;;;;14.47;9.30;;;;;;;;;;759584;183;923664;-63
2023/12/19 09:59:28;;;;;;;16.33;9.73;;;;;;;;;;765129;183;810835;-63
2023/12/19 10:01:54;;;;;;;12.50;8.70;;;;;;;;;;758636;183;932345;-63
2023/12/19 10:04:19;;;;;;;15.70;9.77;;;;;;;;;;758978;183;914294;-64
2023/12/19 10:06:51;;;;;;;11.83;8.50;;;;;;;;;;759413;183;922119;-63
2023/12/19 10:09:17;;;;;;;14.70;9.00;;;;;;;;;;763844;184;918815;-63
2023/12/19 10:11:43;;;;;;;12.53;7.70;;;;;;;;;;761312;183;812622;-69
2023/12/19 10:14:11;;;;;;;14.23;9.20;;;;;;;;;;760467;183;922619;-68
2023/12/19 10:16:35;;;;;;;14.20;8.80;;;;;;;;;;763284;183;919796;-69
2023/12/19 10:19:01;;;;;;;10.93;6.93;;;;;;;;;;753891;181;918211;-64
2023/12/19 10:21:28;;;;;;;13.23;8.03;;;;;;;;;;760623;183;914766;-69
2023/12/19 10:23:53;;;;;;;10.07;7.40;;;;;;;;;;757915;183;921757;-71
2023/12/19 10:26:19;;;;;;;12.10;8.30;;;;;;;;;;764747;183;826903;-70
2023/12/19 10:28:45;;;;;;;11.37;7.07;;;;;;;;;;762123;183;636149;-70
2023/12/19 10:31:12;;;;;;;11.83;7.77;;;;;;;;;;759897;183;920981;-69
2023/12/19 10:33:42;;;;;;;12.20;7.97;;;;;;;;;;764079;183;817220;-70
2023/12/19 10:36:08;;;;;;;12.82;7.72;;;;;;;;;;759963;182;914139;-69
2023/12/19 10:38:49;;;;;;;14.30;8.07;;;;;;;;;;761468;183;917817;-62
2023/12/19 10:41:16;;;;;;;11.90;7.80;;;;;;;;;;760482;182;920755;-63
2023/12/19 10:43:42;;;;;;;10.63;7.90;;;;;;;;;;761694;183;919111;-64
2023/12/19 10:46:08;;;;;;;11.23;7.22;;;;;;;;;;765795;183;919588;-63
2023/12/19 10:48:34;;;;;;;12.70;8.60;;;;;;;;;;761291;183;919024;-70
2023/12/19 10:51:00;;;;;;;11.40;7.60;;;;;;;;;;758222;181;916572;-70
2023/12/19 10:53:26;;;;;;;15.50;9.03;;;;;;;;;;766961;181;630146;-70
2023/12/19 10:55:52;;;;;;;18.40;8.17;;;;;;;;;;760205;181;814914;-63
2023/12/19 10:58:17;;;;;;;9.13;7.10;;;;;;;;;;758611;183;919168;-64
2023/12/19 11:00:43;;;;;;;8.60;6.97;;;;;;;;;;764719;183;811318;-64
2023/12/19 11:03:11;;;;;;;7.72;5.62;;;;;;;;;;762010;181;917761;-70
2023/12/19 11:05:37;;;;;;;10.73;6.17;;;;;;;;;;760389;183;880698;-71
2023/12/19 11:08:03;;;;;;;19.20;5.93;;;;;;;;;;758519;183;914529;-62
2023/12/19 11:10:30;;;;;;;9.23;6.00;;;;;;;;;;765742;183;746777;-63
2023/12/19 11:12:55;;;;;;;9.37;6.00;;;;;;;;;;762745;183;643634;-70
2023/12/19 11:15:21;;;;;;;10.27;6.33;;;;;;;;;;758073;183;1021413;-69
2023/12/19 11:17:47;;;;;;;9.20;5.40;;;;;;;;;;763031;183;919342;-69
2023/12/19 11:20:17;;;;;;;10.00;5.90;;;;;;;;;;759057;183;919360;-63
2023/12/19 11:22:47;;;;;;;6.93;4.63;;;;;;;;;;757655;182;914054;-70
2023/12/19 11:25:13;;;;;;;11.13;6.00;;;;;;;;;;757021;183;913537;-62
2023/12/19 11:27:40;;;;;;;9.82;5.65;;;;;;;;;;763879;183;896724;-63
2023/12/19 11:30:07;;;;;;;8.27;5.23;;;;;;;;;;758816;183;918921;-63
2023/12/19 11:32:35;;;;;;;8.67;5.77;;;;;;;;;;757317;182;900587;-63
2023/12/19 11:35:10;;;;;;;12.33;6.80;;;;;;;;;;763485;181;914060;-63
2023/12/19 11:37:36;;;;;;;10.53;4.97;;;;;;;;;;763944;181;828610;-69
2023/12/19 11:40:01;;;;;;;8.43;6.63;;;;;;;;;;759059;183;919958;-70
2023/12/19 11:42:44;;;;;;;8.57;5.70;;;;;;;;;;759450;183;916958;-63
2023/12/19 11:45:31;;;;;;;7.37;5.07;;;;;;;;;;758764;183;915746;-70
2023/12/19 11:47:56;;;;;;;12.00;6.07;;;;;;;;;;756320;183;905608;-70
2023/12/19 11:50:39;;;;;;;8.60;5.80;;;;;;;;;;763621;181;917922;-70
2023/12/19 11:53:05;;;;;;;8.50;4.53;;;;;;;;;;765665;182;642189;-63
2023/12/19 11:55:31;;;;;;;9.03;5.97;;;;;;;;;;761161;183;895412;-70
2023/12/19 11:58:02;;;;;;;9.33;5.13;;;;;;;;;;759638;180;921765;-63
2023/12/19 12:00:28;;;;;;;9.53;4.87;;;;;;;;;;762053;183;816845;-63
2023/12/19 12:02:54;;;;;;;7.03;4.73;;;;;;;;;;767027;183;898702;-63
2023/12/19 12:05:21;;;;;;;7.10;4.83;;;;;;;;;;761642;183;921119;-71
2023/12/19 12:07:48;;;;;;;9.30;5.30;;;;;;;;;;761545;183;805891;-71
2023/12/19 12:10:15;;;;;;;8.10;4.80;;;;;;;;;;764623;183;819285;-70
2023/12/19 12:12:40;;;;;;;6.57;4.27;;;;;;;;;;757888;183;919380;-70
2023/12/19 12:15:06;;;;;;;7.73;4.80;;;;;;;;;;758498;183;924914;-69
2023/12/19 12:17:34;;;;;;;7.37;4.90;;;;;;;;;;760593;183;919706;-63
2023/12/19 12:19:58;;;;;;;10.70;4.60;;;;;;;;;;763756;183;876318;-69
2023/12/19 12:22:24;;;;;;;8.57;4.83;;;;;;;;;;757894;183;1034636;-63
2023/12/19 12:24:49;;;;;;;10.83;5.73;;;;;;;;;;758834;183;915828;-63
2023/12/19 12:27:16;;;;;;;9.87;6.20;;;;;;;;;;764128;183;834058;-71
2023/12/19 12:29:41;;;;;;;9.47;5.87;;;;;;;;;;760507;183;880104;-71
2023/12/19 12:32:07;;;;;;;7.03;5.00;;;;;;;;;;759639;181;1037005;-67
2023/12/19 12:34:33;;;;;;;12.77;6.20;;;;;;;;;;762502;183;921973;-70
2023/12/19 12:36:59;;;;;;;9.57;5.97;;;;;;;;;;758944;181;916476;-72
2023/12/19 12:39:25;;;;;;;9.48;6.03;;;;;;;;;;757233;183;1020669;-62
2023/12/19 12:41:50;;;;;;;11.57;6.27;;;;;;;;;;759066;182;918064;-63
2023/12/19 12:44:16;;;;;;;10.07;5.13;;;;;;;;;;759375;183;791078;-63
2023/12/19 12:46:44;;;;;;;12.63;4.37;;;;;;;;;;758532;183;896575;-70
2023/12/19 12:49:10;;;;;;;9.50;5.57;;;;;;;;;;758763;181;920178;-69
2023/12/19 12:51:36;;;;;;;6.97;4.53;;;;;;;;;;765171;183;817590;-70
2023/12/19 12:54:02;;;;;;;5.70;4.00;;;;;;;;;;760927;183;818133;-72
2023/12/19 12:56:27;;;;;;;6.87;5.10;;;;;;;;;;762248;183;919215;-64
2023/12/19 12:58:53;;;;;;;7.82;5.62;;;;;;;;;;764311;183;830027;-63
2023/12/19 13:01:19;;;;;;;8.50;4.60;;;;;;;;;;759742;183;820748;-71
2023/12/19 13:03:45;;;;;;;9.67;4.97;;;;;;;;;;757770;181;899099;-63
2023/12/19 13:06:10;;;;;;;8.50;5.40;;;;;;;;;;763309;182;765139;-69
2023/12/19 13:08:37;;;;;;;7.12;4.05;;;;;;;;;;760502;183;920281;-61
2023/12/19 13:11:03;;;;;;;8.80;4.83;;;;;;;;;;759165;181;916027;-68
2023/12/19 13:13:28;;;;;;;8.60;5.10;;;;;;;;;;759420;183;919650;-68
2023/12/19 13:15:54;;;;;;;8.97;5.17;;;;;;;;;;765070;183;918119;-61
2023/12/19 13:18:21;;;;;;;9.70;5.10;;;;;;;;;;760629;183;971915;-69
2023/12/19 13:20:46;;;;;;;13.63;6.10;;;;;;;;;;758902;183;1020481;-61
2023/12/19 13:23:12;;;;;;;6.40;5.03;;;;;;;;;;764544;183;879260;-62
2023/12/19 13:25:41;;;;;;;8.77;5.60;;;;;;;;;;758355;181;926734;-69
2023/12/19 13:28:09;;;;;;;7.47;4.83;;;;;;;;;;757487;183;919921;-61
2023/12/19 13:30:33;;;;;;;9.47;5.03;;;;;;;;;;758306;181;927603;-68
2023/12/19 13:32:59;;;;;;;8.93;6.17;;;;;;;;;;764173;183;916237;-61
2023/12/19 13:35:25;;;;;;;8.23;5.43;;;;;;;;;;758854;183;918207;-62
2023/12/19 13:37:51;;;;;;;7.70;4.80;;;;;;;;;;759692;183;916033;-68
2023/12/19 13:40:17;;;;;;;8.47;5.43;;;;;;;;;;764954;181;918743;-69
2023/12/19 13:42:42;;;;;;;8.68;6.12;;;;;;;;;;759735;183;918750;-61
2023/12/19 13:45:08;;;;;;;11.27;6.50;;;;;;;;;;761082;181;934995;-68
2023/12/19 13:47:34;;;;;;;8.60;5.60;;;;;;;;;;766175;181;645623;-69
2023/12/19 13:50:00;;;;;;;8.80;5.93;;;;;;;;;;758188;181;827611;-69
2023/12/19 13:58:34;;;;;;;8.63;5.30;;;;;;;;;;768713;178;27885;-78
2023/12/19 14:01:00;;;;;;;9.10;4.90;;;;;;;;;;788235;179;639655;-75
2023/12/19 14:03:26;;;;;;;8.27;4.90;;;;;;;;;;777439;179;649798;-76
2023/12/19 14:05:52;;;;;;;7.97;4.97;;;;;;;;;;775300;179;821946;-75
2023/12/19 14:08:18;;;;;;;10.80;5.57;;;;;;;;;;782272;179;619614;-76
2023/12/19 14:10:44;;;;;;;10.90;5.63;;;;;;;;;;780117;179;630793;-76
2023/12/19 14:13:10;;;;;;;8.70;5.60;;;;;;;;;;779848;179;774431;-75